sensor_id;sensor_type;location;lat;lon;timestamp;P1;durP1;ratioP1;P2;durP2;ratioP2
10281;SDS011;5186;59.472;18.048;2022-10-10T00:00:39;4.43;;;1.33;;
10281;SDS011;5186;59.472;18.048;2022-10-10T00:03:05;2.03;;;0.80;;
10281;SDS011;5186;59.472;18.048;2022-10-10T00:05:31;3.80;;;0.90;;
10281;SDS011;5186;59.472;18.048;2022-10-10T00:07:57;2.83;;;1.10;;
10281;SDS011;5186;59.472;18.048;2022-10-10T00:10:23;3.00;;;0.80;;
10281;SDS011;5186;59.472;18.048;2022-10-10T00:12:49;4.67;;;1.13;;
10281;SDS011;5186;59.472;18.048;2022-10-10T00:15:15;4.37;;;0.83;;
10281;SDS011;5186;59.472;18.048;2022-10-10T00:17:41;1.80;;;0.80;;
10281;SDS011;5186;59.472;18.048;2022-10-10T00:20:08;6.77;;;1.00;;
10281;SDS011;5186;59.472;18.048;2022-10-10T00:22:35;3.37;;;0.73;;
10281;SDS011;5186;59.472;18.048;2022-10-10T00:25:01;3.77;;;1.17;;
10281;SDS011;5186;59.472;18.048;2022-10-10T00:27:26;5.53;;;0.90;;
10281;SDS011;5186;59.472;18.048;2022-10-10T00:29:52;4.20;;;1.00;;
10281;SDS011;5186;59.472;18.048;2022-10-10T00:32:18;3.30;;;1.10;;
10281;SDS011;5186;59.472;18.048;2022-10-10T00:34:43;4.90;;;1.10;;
10281;SDS011;5186;59.472;18.048;2022-10-10T00:37:09;2.10;;;0.70;;
10281;SDS011;5186;59.472;18.048;2022-10-10T00:39:34;4.50;;;0.80;;
10281;SDS011;5186;59.472;18.048;2022-10-10T00:42:00;4.90;;;1.20;;
10281;SDS011;5186;59.472;18.048;2022-10-10T00:44:26;4.43;;;1.47;;
10281;SDS011;5186;59.472;18.048;2022-10-10T00:46:52;1.97;;;0.70;;
10281;SDS011;5186;59.472;18.048;2022-10-10T00:49:22;4.57;;;1.00;;
10281;SDS011;5186;59.472;18.048;2022-10-10T00:51:51;7.40;;;1.10;;
10281;SDS011;5186;59.472;18.048;2022-10-10T00:54:20;4.57;;;1.00;;
10281;SDS011;5186;59.472;18.048;2022-10-10T00:56:51;4.10;;;0.77;;
10281;SDS011;5186;59.472;18.048;2022-10-10T00:59:27;3.30;;;0.73;;
10281;SDS011;5186;59.472;18.048;2022-10-10T01:01:57;4.40;;;1.10;;
10281;SDS011;5186;59.472;18.048;2022-10-10T01:04:28;2.97;;;0.87;;
10281;SDS011;5186;59.472;18.048;2022-10-10T01:07:00;4.47;;;0.90;;
10281;SDS011;5186;59.472;18.048;2022-10-10T01:09:29;4.27;;;0.80;;
10281;SDS011;5186;59.472;18.048;2022-10-10T01:17:40;5.13;;;1.17;;
10281;SDS011;5186;59.472;18.048;2022-10-10T01:29:02;3.63;;;1.00;;
10281;SDS011;5186;59.472;18.048;2022-10-10T01:31:38;4.23;;;0.97;;
10281;SDS011;5186;59.472;18.048;2022-10-10T01:34:09;4.23;;;0.90;;
10281;SDS011;5186;59.472;18.048;2022-10-10T01:36:47;3.30;;;0.70;;
10281;SDS011;5186;59.472;18.048;2022-10-10T01:39:27;4.57;;;0.67;;
10281;SDS011;5186;59.472;18.048;2022-10-10T01:44:42;4.57;;;1.10;;
10281;SDS011;5186;59.472;18.048;2022-10-10T01:47:09;2.20;;;0.80;;
10281;SDS011;5186;59.472;18.048;2022-10-10T01:49:35;4.63;;;1.07;;
10281;SDS011;5186;59.472;18.048;2022-10-10T01:57:58;5.13;;;1.20;;
10281;SDS011;5186;59.472;18.048;2022-10-10T02:00:26;5.27;;;0.87;;
10281;SDS011;5186;59.472;18.048;2022-10-10T02:02:57;3.20;;;0.80;;
10281;SDS011;5186;59.472;18.048;2022-10-10T02:05:35;5.37;;;1.20;;
10281;SDS011;5186;59.472;18.048;2022-10-10T02:10:37;2.93;;;0.77;;
10281;SDS011;5186;59.472;18.048;2022-10-10T02:13:08;3.97;;;0.83;;
10281;SDS011;5186;59.472;18.048;2022-10-10T02:15:39;5.00;;;0.90;;
10281;SDS011;5186;59.472;18.048;2022-10-10T02:18:08;5.87;;;1.10;;
10281;SDS011;5186;59.472;18.048;2022-10-10T02:20:35;4.40;;;0.80;;
10281;SDS011;5186;59.472;18.048;2022-10-10T02:23:01;4.33;;;1.00;;
10281;SDS011;5186;59.472;18.048;2022-10-10T02:25:29;3.77;;;0.80;;
10281;SDS011;5186;59.472;18.048;2022-10-10T02:30:37;3.70;;;1.00;;
10281;SDS011;5186;59.472;18.048;2022-10-10T02:33:07;4.77;;;1.07;;
10281;SDS011;5186;59.472;18.048;2022-10-10T02:35:39;2.00;;;0.80;;
10281;SDS011;5186;59.472;18.048;2022-10-10T02:38:09;4.70;;;1.00;;
10281;SDS011;5186;59.472;18.048;2022-10-10T02:40:37;4.00;;;0.97;;
10281;SDS011;5186;59.472;18.048;2022-10-10T02:43:05;4.83;;;1.20;;
10281;SDS011;5186;59.472;18.048;2022-10-10T02:45:32;2.63;;;0.80;;
10281;SDS011;5186;59.472;18.048;2022-10-10T02:47:59;3.27;;;0.97;;
10281;SDS011;5186;59.472;18.048;2022-10-10T02:50:25;3.13;;;0.90;;
10281;SDS011;5186;59.472;18.048;2022-10-10T02:52:52;3.50;;;0.97;;
10281;SDS011;5186;59.472;18.048;2022-10-10T02:55:18;3.50;;;0.90;;
10281;SDS011;5186;59.472;18.048;2022-10-10T02:57:44;4.47;;;1.00;;
10281;SDS011;5186;59.472;18.048;2022-10-10T03:00:10;3.27;;;0.90;;
10281;SDS011;5186;59.472;18.048;2022-10-10T03:02:36;5.23;;;0.90;;
10281;SDS011;5186;59.472;18.048;2022-10-10T03:05:01;2.93;;;0.80;;
10281;SDS011;5186;59.472;18.048;2022-10-10T03:07:27;4.90;;;1.20;;
10281;SDS011;5186;59.472;18.048;2022-10-10T03:09:53;4.97;;;1.10;;
10281;SDS011;5186;59.472;18.048;2022-10-10T03:12:18;2.53;;;1.03;;
10281;SDS011;5186;59.472;18.048;2022-10-10T03:14:44;4.53;;;1.20;;
10281;SDS011;5186;59.472;18.048;2022-10-10T03:17:10;3.67;;;0.97;;
10281;SDS011;5186;59.472;18.048;2022-10-10T03:19:36;3.73;;;1.00;;
10281;SDS011;5186;59.472;18.048;2022-10-10T03:22:01;4.70;;;1.33;;
10281;SDS011;5186;59.472;18.048;2022-10-10T03:24:27;5.00;;;0.80;;
10281;SDS011;5186;59.472;18.048;2022-10-10T03:26:53;4.33;;;1.00;;
10281;SDS011;5186;59.472;18.048;2022-10-10T03:29:19;4.30;;;1.17;;
10281;SDS011;5186;59.472;18.048;2022-10-10T03:31:44;4.37;;;1.33;;
10281;SDS011;5186;59.472;18.048;2022-10-10T03:34:10;3.10;;;0.77;;
10281;SDS011;5186;59.472;18.048;2022-10-10T03:36:35;3.17;;;0.93;;
10281;SDS011;5186;59.472;18.048;2022-10-10T03:39:02;3.30;;;0.83;;
10281;SDS011;5186;59.472;18.048;2022-10-10T03:41:28;4.37;;;0.93;;
10281;SDS011;5186;59.472;18.048;2022-10-10T03:43:54;3.17;;;0.80;;
10281;SDS011;5186;59.472;18.048;2022-10-10T03:46:19;7.07;;;1.17;;
10281;SDS011;5186;59.472;18.048;2022-10-10T03:48:45;4.43;;;0.90;;
10281;SDS011;5186;59.472;18.048;2022-10-10T03:51:11;4.43;;;1.00;;
10281;SDS011;5186;59.472;18.048;2022-10-10T03:53:37;5.77;;;1.23;;
10281;SDS011;5186;59.472;18.048;2022-10-10T03:56:03;6.00;;;1.33;;
10281;SDS011;5186;59.472;18.048;2022-10-10T03:58:29;7.37;;;1.20;;
10281;SDS011;5186;59.472;18.048;2022-10-10T04:00:55;3.37;;;1.00;;
10281;SDS011;5186;59.472;18.048;2022-10-10T04:03:23;4.43;;;0.90;;
10281;SDS011;5186;59.472;18.048;2022-10-10T04:05:49;4.57;;;1.10;;
10281;SDS011;5186;59.472;18.048;2022-10-10T04:08:15;4.70;;;1.10;;
10281;SDS011;5186;59.472;18.048;2022-10-10T04:10:40;6.23;;;1.30;;
10281;SDS011;5186;59.472;18.048;2022-10-10T04:13:06;2.70;;;1.30;;
10281;SDS011;5186;59.472;18.048;2022-10-10T04:15:32;4.43;;;1.30;;
10281;SDS011;5186;59.472;18.048;2022-10-10T04:17:57;4.63;;;1.13;;
10281;SDS011;5186;59.472;18.048;2022-10-10T04:20:24;4.87;;;1.40;;
10281;SDS011;5186;59.472;18.048;2022-10-10T04:22:49;4.20;;;1.37;;
10281;SDS011;5186;59.472;18.048;2022-10-10T04:25:15;3.07;;;1.20;;
10281;SDS011;5186;59.472;18.048;2022-10-10T04:27:41;6.53;;;1.27;;
10281;SDS011;5186;59.472;18.048;2022-10-10T04:30:10;9.83;;;1.40;;
10281;SDS011;5186;59.472;18.048;2022-10-10T04:32:36;4.27;;;1.33;;
10281;SDS011;5186;59.472;18.048;2022-10-10T04:35:02;3.07;;;1.30;;
10281;SDS011;5186;59.472;18.048;2022-10-10T04:37:29;4.70;;;1.50;;
10281;SDS011;5186;59.472;18.048;2022-10-10T04:39:55;6.63;;;1.40;;
10281;SDS011;5186;59.472;18.048;2022-10-10T04:42:20;4.47;;;1.23;;
10281;SDS011;5186;59.472;18.048;2022-10-10T04:44:46;5.90;;;1.37;;
10281;SDS011;5186;59.472;18.048;2022-10-10T04:47:12;5.47;;;1.70;;
10281;SDS011;5186;59.472;18.048;2022-10-10T04:49:38;6.23;;;1.80;;
10281;SDS011;5186;59.472;18.048;2022-10-10T04:52:06;7.43;;;1.90;;
10281;SDS011;5186;59.472;18.048;2022-10-10T04:54:33;4.67;;;1.87;;
10281;SDS011;5186;59.472;18.048;2022-10-10T04:56:58;5.60;;;1.60;;
10281;SDS011;5186;59.472;18.048;2022-10-10T04:59:24;5.73;;;2.37;;
10281;SDS011;5186;59.472;18.048;2022-10-10T05:01:49;4.37;;;1.70;;
10281;SDS011;5186;59.472;18.048;2022-10-10T05:04:15;6.93;;;1.57;;
10281;SDS011;5186;59.472;18.048;2022-10-10T05:06:41;9.70;;;1.60;;
10281;SDS011;5186;59.472;18.048;2022-10-10T05:09:06;7.97;;;2.70;;
10281;SDS011;5186;59.472;18.048;2022-10-10T05:11:32;6.10;;;3.30;;
10281;SDS011;5186;59.472;18.048;2022-10-10T05:13:58;4.87;;;1.90;;
10281;SDS011;5186;59.472;18.048;2022-10-10T05:16:24;2.87;;;1.13;;
10281;SDS011;5186;59.472;18.048;2022-10-10T05:18:49;7.07;;;1.47;;
10281;SDS011;5186;59.472;18.048;2022-10-10T05:21:15;9.27;;;1.80;;
10281;SDS011;5186;59.472;18.048;2022-10-10T05:23:41;7.50;;;1.47;;
10281;SDS011;5186;59.472;18.048;2022-10-10T05:26:07;6.77;;;1.40;;
10281;SDS011;5186;59.472;18.048;2022-10-10T05:28:33;5.93;;;1.37;;
10281;SDS011;5186;59.472;18.048;2022-10-10T05:31:00;4.37;;;1.27;;
10281;SDS011;5186;59.472;18.048;2022-10-10T05:33:26;5.67;;;1.70;;
10281;SDS011;5186;59.472;18.048;2022-10-10T05:35:52;5.23;;;1.40;;
10281;SDS011;5186;59.472;18.048;2022-10-10T05:38:24;4.77;;;1.43;;
10281;SDS011;5186;59.472;18.048;2022-10-10T05:40:50;6.77;;;1.43;;
10281;SDS011;5186;59.472;18.048;2022-10-10T05:43:18;6.23;;;1.60;;
10281;SDS011;5186;59.472;18.048;2022-10-10T05:45:43;7.57;;;1.43;;
10281;SDS011;5186;59.472;18.048;2022-10-10T05:48:09;4.30;;;1.40;;
10281;SDS011;5186;59.472;18.048;2022-10-10T05:50:35;5.40;;;1.37;;
10281;SDS011;5186;59.472;18.048;2022-10-10T05:53:02;7.33;;;1.57;;
10281;SDS011;5186;59.472;18.048;2022-10-10T05:55:28;6.23;;;1.10;;
10281;SDS011;5186;59.472;18.048;2022-10-10T05:57:54;7.53;;;1.60;;
10281;SDS011;5186;59.472;18.048;2022-10-10T06:00:20;5.07;;;1.60;;
10281;SDS011;5186;59.472;18.048;2022-10-10T06:02:45;3.43;;;1.30;;
10281;SDS011;5186;59.472;18.048;2022-10-10T06:05:11;7.63;;;1.60;;
10281;SDS011;5186;59.472;18.048;2022-10-10T06:07:37;5.20;;;1.40;;
10281;SDS011;5186;59.472;18.048;2022-10-10T06:10:03;9.07;;;1.50;;
10281;SDS011;5186;59.472;18.048;2022-10-10T06:12:29;6.43;;;1.50;;
10281;SDS011;5186;59.472;18.048;2022-10-10T06:14:54;6.60;;;1.57;;
10281;SDS011;5186;59.472;18.048;2022-10-10T06:17:20;4.60;;;1.57;;
10281;SDS011;5186;59.472;18.048;2022-10-10T06:19:46;4.47;;;1.27;;
10281;SDS011;5186;59.472;18.048;2022-10-10T06:22:11;8.40;;;1.53;;
10281;SDS011;5186;59.472;18.048;2022-10-10T06:24:37;6.00;;;1.40;;
10281;SDS011;5186;59.472;18.048;2022-10-10T06:27:02;4.83;;;1.20;;
10281;SDS011;5186;59.472;18.048;2022-10-10T06:29:28;3.63;;;1.47;;
10281;SDS011;5186;59.472;18.048;2022-10-10T06:31:54;3.83;;;1.20;;
10281;SDS011;5186;59.472;18.048;2022-10-10T06:34:19;3.60;;;1.40;;
10281;SDS011;5186;59.472;18.048;2022-10-10T06:36:45;6.17;;;1.20;;
10281;SDS011;5186;59.472;18.048;2022-10-10T06:39:13;3.77;;;1.33;;
10281;SDS011;5186;59.472;18.048;2022-10-10T06:41:39;8.10;;;1.50;;
10281;SDS011;5186;59.472;18.048;2022-10-10T06:44:04;7.83;;;1.53;;
10281;SDS011;5186;59.472;18.048;2022-10-10T06:46:30;7.27;;;1.40;;
10281;SDS011;5186;59.472;18.048;2022-10-10T06:48:58;5.27;;;1.40;;
10281;SDS011;5186;59.472;18.048;2022-10-10T06:51:23;9.67;;;1.40;;
10281;SDS011;5186;59.472;18.048;2022-10-10T06:53:49;6.83;;;1.47;;
10281;SDS011;5186;59.472;18.048;2022-10-10T06:56:15;4.00;;;1.30;;
10281;SDS011;5186;59.472;18.048;2022-10-10T06:58:47;5.80;;;1.60;;
10281;SDS011;5186;59.472;18.048;2022-10-10T07:01:13;5.83;;;1.20;;
10281;SDS011;5186;59.472;18.048;2022-10-10T07:03:40;4.13;;;1.20;;
10281;SDS011;5186;59.472;18.048;2022-10-10T07:06:07;6.27;;;1.47;;
10281;SDS011;5186;59.472;18.048;2022-10-10T07:08:35;4.47;;;1.50;;
10281;SDS011;5186;59.472;18.048;2022-10-10T07:11:01;7.27;;;1.20;;
10281;SDS011;5186;59.472;18.048;2022-10-10T07:13:26;4.90;;;1.40;;
10281;SDS011;5186;59.472;18.048;2022-10-10T07:15:52;5.13;;;1.20;;
10281;SDS011;5186;59.472;18.048;2022-10-10T07:18:18;4.63;;;1.40;;
10281;SDS011;5186;59.472;18.048;2022-10-10T07:20:45;5.77;;;1.47;;
10281;SDS011;5186;59.472;18.048;2022-10-10T07:23:11;2.33;;;1.30;;
10281;SDS011;5186;59.472;18.048;2022-10-10T07:25:37;4.43;;;1.20;;
10281;SDS011;5186;59.472;18.048;2022-10-10T07:28:04;7.83;;;1.57;;
10281;SDS011;5186;59.472;18.048;2022-10-10T07:30:30;5.67;;;1.90;;
10281;SDS011;5186;59.472;18.048;2022-10-10T07:32:55;7.13;;;1.67;;
10281;SDS011;5186;59.472;18.048;2022-10-10T07:35:22;5.77;;;1.17;;
10281;SDS011;5186;59.472;18.048;2022-10-10T07:37:48;5.67;;;1.40;;
10281;SDS011;5186;59.472;18.048;2022-10-10T07:40:17;6.00;;;1.33;;
10281;SDS011;5186;59.472;18.048;2022-10-10T07:42:43;6.30;;;1.50;;
10281;SDS011;5186;59.472;18.048;2022-10-10T07:45:09;7.77;;;1.27;;
10281;SDS011;5186;59.472;18.048;2022-10-10T07:47:36;7.50;;;1.20;;
10281;SDS011;5186;59.472;18.048;2022-10-10T07:50:03;8.20;;;1.47;;
10281;SDS011;5186;59.472;18.048;2022-10-10T07:52:30;4.33;;;1.30;;
10281;SDS011;5186;59.472;18.048;2022-10-10T07:54:56;6.87;;;1.33;;
10281;SDS011;5186;59.472;18.048;2022-10-10T07:57:22;3.03;;;1.37;;
10281;SDS011;5186;59.472;18.048;2022-10-10T07:59:47;4.37;;;1.27;;
10281;SDS011;5186;59.472;18.048;2022-10-10T08:02:13;5.40;;;1.20;;
10281;SDS011;5186;59.472;18.048;2022-10-10T08:04:39;7.87;;;1.43;;
10281;SDS011;5186;59.472;18.048;2022-10-10T08:07:05;4.53;;;1.30;;
10281;SDS011;5186;59.472;18.048;2022-10-10T08:09:31;2.83;;;1.30;;
10281;SDS011;5186;59.472;18.048;2022-10-10T08:11:56;4.63;;;1.20;;
10281;SDS011;5186;59.472;18.048;2022-10-10T08:14:22;6.27;;;1.30;;
10281;SDS011;5186;59.472;18.048;2022-10-10T08:16:48;5.63;;;1.40;;
10281;SDS011;5186;59.472;18.048;2022-10-10T08:19:13;4.27;;;1.20;;
10281;SDS011;5186;59.472;18.048;2022-10-10T08:21:39;3.47;;;1.20;;
10281;SDS011;5186;59.472;18.048;2022-10-10T08:24:04;4.67;;;1.37;;
10281;SDS011;5186;59.472;18.048;2022-10-10T08:26:30;9.70;;;1.60;;
10281;SDS011;5186;59.472;18.048;2022-10-10T08:28:56;4.47;;;1.20;;
10281;SDS011;5186;59.472;18.048;2022-10-10T08:31:22;7.70;;;1.40;;
10281;SDS011;5186;59.472;18.048;2022-10-10T08:33:48;3.33;;;1.10;;
10281;SDS011;5186;59.472;18.048;2022-10-10T08:36:16;9.43;;;1.40;;
10281;SDS011;5186;59.472;18.048;2022-10-10T08:38:43;7.30;;;1.57;;
10281;SDS011;5186;59.472;18.048;2022-10-10T08:41:13;4.97;;;1.30;;
10281;SDS011;5186;59.472;18.048;2022-10-10T08:43:54;7.03;;;1.33;;
10281;SDS011;5186;59.472;18.048;2022-10-10T08:49:22;4.37;;;1.40;;
10281;SDS011;5186;59.472;18.048;2022-10-10T08:51:51;3.67;;;1.13;;
10281;SDS011;5186;59.472;18.048;2022-10-10T08:54:23;3.23;;;1.30;;
10281;SDS011;5186;59.472;18.048;2022-10-10T08:56:50;5.20;;;1.17;;
10281;SDS011;5186;59.472;18.048;2022-10-10T08:59:23;4.93;;;1.20;;
10281;SDS011;5186;59.472;18.048;2022-10-10T09:01:53;7.00;;;1.43;;
10281;SDS011;5186;59.472;18.048;2022-10-10T09:04:24;3.50;;;1.20;;
10281;SDS011;5186;59.472;18.048;2022-10-10T09:12:24;7.27;;;1.33;;
10281;SDS011;5186;59.472;18.048;2022-10-10T09:15:11;2.53;;;0.83;;
10281;SDS011;5186;59.472;18.048;2022-10-10T09:22:56;5.73;;;1.33;;
10281;SDS011;5186;59.472;18.048;2022-10-10T09:25:28;3.43;;;1.10;;
10281;SDS011;5186;59.472;18.048;2022-10-10T09:28:11;5.40;;;1.37;;
10281;SDS011;5186;59.472;18.048;2022-10-10T09:30:43;3.70;;;1.00;;
10281;SDS011;5186;59.472;18.048;2022-10-10T09:36:06;3.27;;;0.90;;
10281;SDS011;5186;59.472;18.048;2022-10-10T09:41:54;3.53;;;1.10;;
10281;SDS011;5186;59.472;18.048;2022-10-10T09:44:04;5.53;;;1.10;;
10281;SDS011;5186;59.472;18.048;2022-10-10T09:46:33;3.37;;;1.30;;
10281;SDS011;5186;59.472;18.048;2022-10-10T09:49:00;4.90;;;1.10;;
10281;SDS011;5186;59.472;18.048;2022-10-10T09:51:27;6.30;;;1.33;;
10281;SDS011;5186;59.472;18.048;2022-10-10T09:53:53;5.70;;;1.23;;
10281;SDS011;5186;59.472;18.048;2022-10-10T09:56:23;4.33;;;1.40;;
10281;SDS011;5186;59.472;18.048;2022-10-10T09:58:52;4.03;;;1.23;;
10281;SDS011;5186;59.472;18.048;2022-10-10T10:01:20;6.27;;;1.40;;
10281;SDS011;5186;59.472;18.048;2022-10-10T10:04:04;7.07;;;1.50;;
10281;SDS011;5186;59.472;18.048;2022-10-10T10:06:46;7.83;;;1.67;;
10281;SDS011;5186;59.472;18.048;2022-10-10T10:09:23;6.90;;;1.40;;
10281;SDS011;5186;59.472;18.048;2022-10-10T10:11:56;2.53;;;1.10;;
10281;SDS011;5186;59.472;18.048;2022-10-10T10:16:54;4.60;;;1.40;;
10281;SDS011;5186;59.472;18.048;2022-10-10T10:19:34;2.10;;;0.90;;
10281;SDS011;5186;59.472;18.048;2022-10-10T10:22:01;5.77;;;1.40;;
10281;SDS011;5186;59.472;18.048;2022-10-10T10:24:31;6.13;;;1.10;;
10281;SDS011;5186;59.472;18.048;2022-10-10T10:27:20;5.63;;;1.23;;
10281;SDS011;5186;59.472;18.048;2022-10-10T10:29:48;7.83;;;1.33;;
10281;SDS011;5186;59.472;18.048;2022-10-10T10:32:22;2.47;;;0.90;;
10281;SDS011;5186;59.472;18.048;2022-10-10T10:46:35;7.10;;;1.40;;
10281;SDS011;5186;59.472;18.048;2022-10-10T10:49:27;3.83;;;1.50;;
10281;SDS011;5186;59.472;18.048;2022-10-10T11:00:23;3.90;;;1.23;;
10281;SDS011;5186;59.472;18.048;2022-10-10T11:05:40;3.63;;;2.00;;
10281;SDS011;5186;59.472;18.048;2022-10-10T11:11:18;5.03;;;1.60;;
10281;SDS011;5186;59.472;18.048;2022-10-10T11:16:23;9.20;;;2.40;;
10281;SDS011;5186;59.472;18.048;2022-10-10T11:19:00;4.83;;;2.03;;
10281;SDS011;5186;59.472;18.048;2022-10-10T11:21:43;4.80;;;1.90;;
10281;SDS011;5186;59.472;18.048;2022-10-10T11:24:26;4.47;;;1.50;;
10281;SDS011;5186;59.472;18.048;2022-10-10T11:27:00;5.13;;;1.30;;
10281;SDS011;5186;59.472;18.048;2022-10-10T11:29:37;4.90;;;1.20;;
10281;SDS011;5186;59.472;18.048;2022-10-10T11:41:23;4.97;;;1.30;;
10281;SDS011;5186;59.472;18.048;2022-10-10T11:43:56;4.47;;;1.30;;
10281;SDS011;5186;59.472;18.048;2022-10-10T11:46:34;9.10;;;1.93;;
10281;SDS011;5186;59.472;18.048;2022-10-10T11:51:40;3.30;;;1.30;;
10281;SDS011;5186;59.472;18.048;2022-10-10T11:54:15;3.27;;;1.30;;
10281;SDS011;5186;59.472;18.048;2022-10-10T11:57:02;5.07;;;1.53;;
10281;SDS011;5186;59.472;18.048;2022-10-10T11:59:35;7.07;;;1.83;;
10281;SDS011;5186;59.472;18.048;2022-10-10T12:02:17;3.53;;;1.17;;
10281;SDS011;5186;59.472;18.048;2022-10-10T12:04:55;6.50;;;1.30;;
10281;SDS011;5186;59.472;18.048;2022-10-10T12:07:29;6.07;;;1.47;;
10281;SDS011;5186;59.472;18.048;2022-10-10T12:10:17;7.10;;;1.30;;
10281;SDS011;5186;59.472;18.048;2022-10-10T12:12:48;4.00;;;1.40;;
10281;SDS011;5186;59.472;18.048;2022-10-10T12:17:53;4.90;;;1.20;;
10281;SDS011;5186;59.472;18.048;2022-10-10T12:25:53;4.20;;;1.40;;
10281;SDS011;5186;59.472;18.048;2022-10-10T12:35:50;5.07;;;1.40;;
10281;SDS011;5186;59.472;18.048;2022-10-10T12:38:19;3.20;;;0.97;;
10281;SDS011;5186;59.472;18.048;2022-10-10T12:48:59;4.27;;;1.40;;
10281;SDS011;5186;59.472;18.048;2022-10-10T12:51:26;4.40;;;1.20;;
10281;SDS011;5186;59.472;18.048;2022-10-10T12:53:54;3.47;;;1.07;;
10281;SDS011;5186;59.472;18.048;2022-10-10T12:56:36;4.33;;;1.50;;
10281;SDS011;5186;59.472;18.048;2022-10-10T12:59:05;3.57;;;1.17;;
10281;SDS011;5186;59.472;18.048;2022-10-10T13:01:43;4.40;;;1.67;;
10281;SDS011;5186;59.472;18.048;2022-10-10T13:04:15;5.10;;;1.30;;
10281;SDS011;5186;59.472;18.048;2022-10-10T13:06:42;5.13;;;1.40;;
10281;SDS011;5186;59.472;18.048;2022-10-10T13:09:19;4.37;;;1.33;;
10281;SDS011;5186;59.472;18.048;2022-10-10T13:14:24;4.93;;;1.30;;
10281;SDS011;5186;59.472;18.048;2022-10-10T13:16:51;7.50;;;1.40;;
10281;SDS011;5186;59.472;18.048;2022-10-10T13:19:18;3.13;;;1.10;;
10281;SDS011;5186;59.472;18.048;2022-10-10T13:21:49;3.97;;;1.40;;
10281;SDS011;5186;59.472;18.048;2022-10-10T13:24:17;3.40;;;1.23;;
10281;SDS011;5186;59.472;18.048;2022-10-10T13:31:53;4.53;;;1.60;;
10281;SDS011;5186;59.472;18.048;2022-10-10T13:34:35;4.17;;;1.57;;
10281;SDS011;5186;59.472;18.048;2022-10-10T13:37:03;5.43;;;1.37;;
10281;SDS011;5186;59.472;18.048;2022-10-10T13:39:30;3.90;;;1.60;;
10281;SDS011;5186;59.472;18.048;2022-10-10T13:41:59;4.97;;;1.53;;
10281;SDS011;5186;59.472;18.048;2022-10-10T13:44:29;5.60;;;1.50;;
10281;SDS011;5186;59.472;18.048;2022-10-10T13:58:29;6.30;;;1.47;;
10281;SDS011;5186;59.472;18.048;2022-10-10T14:00:57;4.93;;;1.37;;
10281;SDS011;5186;59.472;18.048;2022-10-10T14:03:26;4.43;;;1.23;;
10281;SDS011;5186;59.472;18.048;2022-10-10T14:05:52;5.73;;;1.27;;
10281;SDS011;5186;59.472;18.048;2022-10-10T14:08:19;7.07;;;1.43;;
10281;SDS011;5186;59.472;18.048;2022-10-10T14:10:59;3.87;;;1.30;;
10281;SDS011;5186;59.472;18.048;2022-10-10T14:13:29;5.23;;;1.40;;
10281;SDS011;5186;59.472;18.048;2022-10-10T14:18:41;5.33;;;0.93;;
10281;SDS011;5186;59.472;18.048;2022-10-10T14:21:07;4.33;;;1.30;;
10281;SDS011;5186;59.472;18.048;2022-10-10T14:23:33;6.57;;;1.30;;
10281;SDS011;5186;59.472;18.048;2022-10-10T14:26:00;4.00;;;1.37;;
10281;SDS011;5186;59.472;18.048;2022-10-10T14:28:27;5.07;;;1.37;;
10281;SDS011;5186;59.472;18.048;2022-10-10T14:30:54;5.33;;;1.40;;
10281;SDS011;5186;59.472;18.048;2022-10-10T14:33:20;4.57;;;1.17;;
10281;SDS011;5186;59.472;18.048;2022-10-10T14:35:47;3.90;;;1.50;;
10281;SDS011;5186;59.472;18.048;2022-10-10T14:38:14;5.57;;;1.47;;
10281;SDS011;5186;59.472;18.048;2022-10-10T14:40:40;4.57;;;1.50;;
10281;SDS011;5186;59.472;18.048;2022-10-10T14:43:07;3.67;;;1.37;;
10281;SDS011;5186;59.472;18.048;2022-10-10T14:45:33;5.50;;;1.40;;
10281;SDS011;5186;59.472;18.048;2022-10-10T14:47:58;4.07;;;1.17;;
10281;SDS011;5186;59.472;18.048;2022-10-10T14:50:26;8.80;;;1.50;;
10281;SDS011;5186;59.472;18.048;2022-10-10T14:52:55;4.93;;;1.67;;
10281;SDS011;5186;59.472;18.048;2022-10-10T14:55:21;6.13;;;1.43;;
10281;SDS011;5186;59.472;18.048;2022-10-10T14:57:46;6.33;;;1.63;;
10281;SDS011;5186;59.472;18.048;2022-10-10T15:00:13;5.67;;;1.27;;
10281;SDS011;5186;59.472;18.048;2022-10-10T15:02:42;4.57;;;1.47;;
10281;SDS011;5186;59.472;18.048;2022-10-10T15:05:07;5.77;;;2.03;;
10281;SDS011;5186;59.472;18.048;2022-10-10T15:07:33;3.37;;;1.60;;
10281;SDS011;5186;59.472;18.048;2022-10-10T15:09:59;5.27;;;1.47;;
10281;SDS011;5186;59.472;18.048;2022-10-10T15:12:24;3.93;;;1.43;;
10281;SDS011;5186;59.472;18.048;2022-10-10T15:14:50;3.07;;;1.60;;
10281;SDS011;5186;59.472;18.048;2022-10-10T15:17:16;6.00;;;1.60;;
10281;SDS011;5186;59.472;18.048;2022-10-10T15:19:41;2.40;;;1.30;;
10281;SDS011;5186;59.472;18.048;2022-10-10T15:22:07;4.70;;;1.60;;
10281;SDS011;5186;59.472;18.048;2022-10-10T15:24:32;5.33;;;1.30;;
10281;SDS011;5186;59.472;18.048;2022-10-10T15:26:59;7.83;;;1.60;;
10281;SDS011;5186;59.472;18.048;2022-10-10T15:29:25;6.60;;;1.80;;
10281;SDS011;5186;59.472;18.048;2022-10-10T15:31:50;4.03;;;1.50;;
10281;SDS011;5186;59.472;18.048;2022-10-10T15:34:18;5.37;;;1.73;;
10281;SDS011;5186;59.472;18.048;2022-10-10T15:36:48;6.53;;;1.73;;
10281;SDS011;5186;59.472;18.048;2022-10-10T15:39:14;5.13;;;1.67;;
10281;SDS011;5186;59.472;18.048;2022-10-10T15:41:39;8.07;;;1.80;;
10281;SDS011;5186;59.472;18.048;2022-10-10T15:44:06;4.87;;;1.40;;
10281;SDS011;5186;59.472;18.048;2022-10-10T15:46:40;5.73;;;1.67;;
10281;SDS011;5186;59.472;18.048;2022-10-10T15:49:07;4.20;;;1.53;;
10281;SDS011;5186;59.472;18.048;2022-10-10T15:51:33;6.07;;;1.63;;
10281;SDS011;5186;59.472;18.048;2022-10-10T15:53:59;4.37;;;1.53;;
10281;SDS011;5186;59.472;18.048;2022-10-10T15:56:25;4.67;;;1.73;;
10281;SDS011;5186;59.472;18.048;2022-10-10T15:58:58;4.27;;;1.50;;
10281;SDS011;5186;59.472;18.048;2022-10-10T16:01:26;6.23;;;1.73;;
10281;SDS011;5186;59.472;18.048;2022-10-10T16:03:52;7.63;;;1.60;;
10281;SDS011;5186;59.472;18.048;2022-10-10T16:06:19;4.53;;;1.67;;
10281;SDS011;5186;59.472;18.048;2022-10-10T16:08:46;4.67;;;1.50;;
10281;SDS011;5186;59.472;18.048;2022-10-10T16:11:15;6.33;;;2.07;;
10281;SDS011;5186;59.472;18.048;2022-10-10T16:13:45;3.33;;;1.23;;
10281;SDS011;5186;59.472;18.048;2022-10-10T16:16:12;6.63;;;1.80;;
10281;SDS011;5186;59.472;18.048;2022-10-10T16:18:38;4.57;;;1.53;;
10281;SDS011;5186;59.472;18.048;2022-10-10T16:21:05;4.73;;;1.63;;
10281;SDS011;5186;59.472;18.048;2022-10-10T16:23:32;6.77;;;2.00;;
10281;SDS011;5186;59.472;18.048;2022-10-10T16:26:02;6.17;;;1.87;;
10281;SDS011;5186;59.472;18.048;2022-10-10T16:28:30;4.67;;;2.17;;
10281;SDS011;5186;59.472;18.048;2022-10-10T16:30:56;5.73;;;1.70;;
10281;SDS011;5186;59.472;18.048;2022-10-10T16:33:25;4.27;;;1.50;;
10281;SDS011;5186;59.472;18.048;2022-10-10T16:35:51;4.47;;;1.70;;
10281;SDS011;5186;59.472;18.048;2022-10-10T16:38:17;5.50;;;2.07;;
10281;SDS011;5186;59.472;18.048;2022-10-10T16:40:42;4.17;;;1.80;;
10281;SDS011;5186;59.472;18.048;2022-10-10T16:43:08;4.57;;;2.03;;
10281;SDS011;5186;59.472;18.048;2022-10-10T16:45:36;4.60;;;2.13;;
10281;SDS011;5186;59.472;18.048;2022-10-10T16:48:05;6.17;;;1.77;;
10281;SDS011;5186;59.472;18.048;2022-10-10T16:50:30;9.60;;;2.63;;
10281;SDS011;5186;59.472;18.048;2022-10-10T16:52:56;7.50;;;2.17;;
10281;SDS011;5186;59.472;18.048;2022-10-10T16:55:23;5.10;;;1.80;;
10281;SDS011;5186;59.472;18.048;2022-10-10T16:57:48;6.43;;;1.80;;
10281;SDS011;5186;59.472;18.048;2022-10-10T17:00:14;5.23;;;2.00;;
10281;SDS011;5186;59.472;18.048;2022-10-10T17:02:40;6.60;;;2.40;;
10281;SDS011;5186;59.472;18.048;2022-10-10T17:05:06;6.10;;;2.07;;
10281;SDS011;5186;59.472;18.048;2022-10-10T17:07:33;3.53;;;1.97;;
10281;SDS011;5186;59.472;18.048;2022-10-10T17:09:59;4.53;;;2.20;;